Terminal Aerodrome Forecast
Issued by NWS

Current Version | Previous Version | Text Only | Print | Product List | Glossary Off
Versions: 1 2 3 4 5 6 7 8 9 10 11 12 13 14 15 16 17 18 19 20

000
FTUS41 KPBZ 301125
TAFHLG
TAF
KHLG 301125Z 3012/0112 11006KT 5SM -SHRA OVC035
     FM301500 14007KT 5SM -SHRA OVC015
     FM301800 21008KT P6SM -SHRA OVC025
     FM010300 25010KT P6SM VCSH BKN035
     FM011000 25010G20KT P6SM BKN025=

USA.gov is the U.S. government's official web portal to all federal, state and local government web resources and services.